Time;durP1;ratioP1;P1;durP2;ratioP2;P2;SDS_P1;SDS_P2;PMS_P1;PMS_P2;Temp;Humidity;BMP_temperature;BMP_pressure;BME280_temperature;BME280_humidity;BME280_pressure;Samples;Min_cycle;Max_cycle;Signal;HPM_P1;HPM_P2
2021/12/21 00:02:46;;;;;;;10.35;3.25;;;;;;;-1.97;75.77;101819.16;4769398;30;20112;-67
2021/12/21 00:05:50;;;;;;;7.90;2.90;;;;;;;-2.04;75.95;101823.28;4768939;30;20117;-67
2021/12/21 00:08:53;;;;;;;7.72;3.08;;;;;;;-2.13;75.24;101816.25;4768963;30;20050;-67
2021/12/21 00:11:58;;;;;;;8.23;3.38;;;;;;;-2.07;75.12;101807.84;4768835;30;20105;-67
2021/12/21 00:15:07;;;;;;;7.93;3.58;;;;;;;-2.13;75.34;101808.56;4768578;30;20111;-66
2021/12/21 00:18:23;;;;;;;10.15;3.63;;;;;;;-2.13;74.72;101802.59;4768944;30;20051;-66
2021/12/21 00:24:34;;;;;;;10.05;3.13;;;;;;;-2.21;75.46;101806.69;4769189;30;20143;-66
2021/12/21 00:27:38;;;;;;;9.55;4.32;;;;;;;-2.36;75.39;101808.09;4768695;30;20077;-66
2021/12/21 00:30:41;;;;;;;8.02;3.20;;;;;;;-2.46;75.52;101802.72;4778238;30;20051;-67
2021/12/21 00:33:46;;;;;;;8.52;3.75;;;;;;;-2.58;75.72;101800.78;4768939;30;20054;-66
2021/12/21 00:36:50;;;;;;;7.82;3.60;;;;;;;-2.52;75.39;101792.34;4768818;30;20131;-67
2021/12/21 00:39:53;;;;;;;17.48;3.92;;;;;;;-2.43;75.52;101802.81;4768779;30;20433;-67
2021/12/21 00:42:57;;;;;;;11.68;3.95;;;;;;;-2.32;75.27;101798.78;4768636;30;20517;-66
2021/12/21 00:46:00;;;;;;;8.80;3.53;;;;;;;-2.29;74.68;101796.28;4768682;30;20101;-66
2021/12/21 00:49:13;;;;;;;11.15;3.95;;;;;;;-2.43;75.08;101788.28;4768262;30;20058;-66
2021/12/21 00:52:16;;;;;;;10.88;3.78;;;;;;;-2.40;74.95;101798.59;4768567;30;20050;-67
2021/12/21 00:55:22;;;;;;;11.52;3.90;;;;;;;-2.43;75.72;101793.41;4768377;30;20130;-66
2021/12/21 00:58:25;;;;;;;11.77;4.63;;;;;;;-2.38;75.45;101785.84;4768621;30;20054;-67
2021/12/21 01:01:29;;;;;;;8.98;4.10;;;;;;;-2.40;74.94;101787.50;4768567;30;20498;-67
2021/12/21 01:04:38;;;;;;;10.73;3.97;;;;;;;-2.37;74.89;101787.56;4768339;30;20108;-66
2021/12/21 01:07:45;;;;;;;11.27;3.65;;;;;;;-2.37;74.38;101782.44;4768239;30;20062;-66
2021/12/21 01:14:08;;;;;;;14.65;3.72;;;;;;;-2.57;75.54;101782.88;4768430;30;20046;-66
2021/12/21 01:17:19;;;;;;;11.88;3.88;;;;;;;-2.44;75.31;101783.16;4768446;30;20460;-66
2021/12/21 01:20:32;;;;;;;9.13;3.53;;;;;;;-2.48;75.08;101783.94;4768009;30;20069;-66
2021/12/21 01:30:35;;;;;;;10.10;4.78;;;;;;;-2.78;75.50;101787.53;4771680;30;20043;-67
2021/12/21 01:37:07;;;;;;;11.52;3.70;;;;;;;-2.65;75.04;101779.31;4789469;30;20115;-66
2021/12/21 01:40:53;;;;;;;14.20;3.38;;;;;;;-2.66;75.02;101780.13;4779235;30;20054;-66
2021/12/21 01:43:51;;;;;;;10.48;3.40;;;;;;;-2.55;74.71;101771.81;4771647;30;20081;-67
2021/12/21 01:50:16;;;;;;;14.02;4.68;;;;;;;-2.64;74.63;101768.22;4771254;30;20537;-67
2021/12/21 01:53:20;;;;;;;9.30;4.38;;;;;;;-2.67;74.74;101763.03;4771145;30;20065;-67
2021/12/21 01:56:24;;;;;;;9.80;3.67;;;;;;;-2.72;74.21;101759.50;4771276;30;20663;-66
2021/12/21 01:59:27;;;;;;;8.80;4.00;;;;;;;-2.75;74.34;101758.56;4770564;30;20043;-67
2021/12/21 02:02:30;;;;;;;9.25;4.53;;;;;;;-2.71;74.36;101766.38;4770679;30;20090;-67
2021/12/21 02:05:33;;;;;;;8.27;4.15;;;;;;;-2.78;74.28;101769.59;4770927;30;20189;-67
2021/12/21 02:08:37;;;;;;;10.55;3.75;;;;;;;-2.91;74.58;101773.59;4770085;30;20074;-67
2021/12/21 02:11:40;;;;;;;15.20;4.82;;;;;;;-2.93;74.91;101774.41;4771020;30;20423;-66
2021/12/21 02:14:52;;;;;;;9.27;3.85;;;;;;;-2.82;74.62;101767.81;4770901;30;20263;-66
2021/12/21 02:21:06;;;;;;;10.73;4.05;;;;;;;-2.78;74.93;101754.25;4770881;30;20054;-66
2021/12/21 02:24:14;;;;;;;13.10;4.35;;;;;;;-2.88;74.70;101760.00;4770732;30;20054;-66
2021/12/21 02:27:26;;;;;;;11.05;4.57;;;;;;;-2.99;74.59;101758.91;4770781;30;20446;-66
2021/12/21 02:30:30;;;;;;;10.77;4.50;;;;;;;-3.09;74.84;101757.84;4770541;30;20568;-66
2021/12/21 02:33:34;;;;;;;7.22;3.67;;;;;;;-3.08;75.13;101755.28;4770315;30;20446;-67
2021/12/21 02:36:39;;;;;;;10.63;4.00;;;;;;;-2.95;74.81;101753.03;4770434;30;20510;-66
2021/12/21 02:39:43;;;;;;;11.13;4.28;;;;;;;-2.93;74.68;101748.81;4770514;30;20213;-66
2021/12/21 02:42:46;;;;;;;12.75;5.07;;;;;;;-2.98;75.53;101751.25;4770455;30;20052;-67
2021/12/21 02:45:50;;;;;;;9.23;3.75;;;;;;;-2.92;74.61;101748.84;4770412;30;20064;-66
2021/12/21 02:48:53;;;;;;;10.85;4.50;;;;;;;-3.08;74.86;101744.19;4770305;30;20121;-66
2021/12/21 02:51:56;;;;;;;9.95;3.95;;;;;;;-3.23;74.97;101748.94;4770152;30;20135;-67
2021/12/21 02:55:02;;;;;;;8.93;3.92;;;;;;;-3.18;75.15;101747.38;4770202;30;20137;-66
2021/12/21 02:58:06;;;;;;;6.97;3.50;;;;;;;-3.11;74.78;101741.56;4770203;30;20051;-66
2021/12/21 03:01:11;;;;;;;12.23;4.82;;;;;;;-3.15;74.63;101743.19;4770245;30;20062;-66
2021/12/21 03:04:14;;;;;;;12.60;3.92;;;;;;;-3.04;74.46;101746.84;4752361;30;20530;-67
2021/12/21 03:10:25;;;;;;;10.85;5.00;;;;;;;-3.25;74.51;101740.38;4752475;30;20071;-66
2021/12/21 03:14:03;;;;;;;8.20;3.97;;;;;;;-3.32;74.63;101750.47;4752164;30;20481;-67
2021/12/21 03:16:58;;;;;;;11.25;4.60;;;;;;;-3.45;75.11;101743.31;4752053;30;20050;-67
2021/12/21 03:20:01;;;;;;;9.80;4.20;;;;;;;-3.22;74.32;101735.31;4751930;30;20172;-66
2021/12/21 03:23:04;;;;;;;10.68;4.22;;;;;;;-3.22;74.11;101741.31;4751285;30;20051;-67
2021/12/21 03:26:08;;;;;;;13.40;4.32;;;;;;;-3.15;73.98;101735.53;4752292;30;20046;-67
2021/12/21 03:29:12;;;;;;;5.95;3.38;;;;;;;-3.20;74.26;101744.75;4751818;30;20060;-66
2021/12/21 03:32:15;;;;;;;11.32;4.47;;;;;;;-3.17;74.08;101747.41;4758116;30;20047;-66
2021/12/21 03:35:18;;;;;;;8.95;4.63;;;;;;;-3.22;73.59;101743.88;4769703;30;20589;-67
2021/12/21 03:38:22;;;;;;;9.90;4.05;;;;;;;-3.27;74.32;101742.91;4769719;30;20424;-67
2021/12/21 03:41:26;;;;;;;18.88;5.72;;;;;;;-3.27;74.58;101750.56;4769688;30;20059;-66
2021/12/21 03:44:29;;;;;;;11.60;4.18;;;;;;;-3.28;74.83;101751.41;4769119;30;20509;-67
2021/12/21 03:47:32;;;;;;;12.18;4.45;;;;;;;-3.28;74.06;101747.16;4769298;30;20112;-66
2021/12/21 03:50:36;;;;;;;11.57;4.07;;;;;;;-3.41;74.49;101749.38;4768427;30;20054;-66
2021/12/21 03:53:39;;;;;;;11.18;4.57;;;;;;;-3.37;74.33;101753.75;4769379;30;20104;-67
2021/12/21 03:56:47;;;;;;;12.38;4.57;;;;;;;-3.37;73.79;101752.03;4769325;30;20054;-66
2021/12/21 03:59:52;;;;;;;10.10;4.85;;;;;;;-3.40;74.23;101756.22;4769246;30;20104;-67
2021/12/21 04:02:56;;;;;;;11.38;5.05;;;;;;;-3.38;74.22;101744.31;4768644;30;20109;-67
2021/12/21 04:05:59;;;;;;;7.43;3.90;;;;;;;-3.55;74.21;101743.91;4769069;30;20210;-67
2021/12/21 04:09:04;;;;;;;13.20;4.45;;;;;;;-3.54;74.25;101754.19;4769372;30;20505;-67
2021/12/21 04:12:08;;;;;;;10.98;4.35;;;;;;;-3.51;73.91;101738.03;4769120;30;20059;-67
2021/12/21 04:15:14;;;;;;;12.32;4.80;;;;;;;-3.57;74.32;101741.34;4769152;30;20051;-66
2021/12/21 04:18:19;;;;;;;11.82;4.60;;;;;;;-3.38;73.88;101740.09;4769031;30;20050;-66
2021/12/21 04:21:23;;;;;;;14.02;5.32;;;;;;;-3.32;73.87;101736.78;4769146;30;20175;-66
2021/12/21 04:24:26;;;;;;;11.93;4.38;;;;;;;-3.44;73.35;101734.84;4769035;30;20055;-67
2021/12/21 04:27:30;;;;;;;12.65;4.75;;;;;;;-3.62;73.53;101748.00;4769072;30;20438;-66
2021/12/21 04:30:33;;;;;;;13.57;5.00;;;;;;;-3.60;74.28;101738.69;4768732;30;20104;-66
2021/12/21 04:33:39;;;;;;;10.48;4.22;;;;;;;-3.60;74.38;101733.59;4758216;30;20427;-67
2021/12/21 04:36:44;;;;;;;9.27;4.57;;;;;;;-3.63;74.28;101733.50;4768279;30;20098;-67
2021/12/21 04:39:56;;;;;;;11.20;4.40;;;;;;;-3.72;74.46;101737.53;4770847;30;20074;-66
2021/12/21 04:43:00;;;;;;;7.43;3.88;;;;;;;-3.70;74.21;101741.84;4753618;30;20062;-66
2021/12/21 04:46:04;;;;;;;8.18;4.30;;;;;;;-3.71;74.39;101739.25;4769336;30;20117;-66
2021/12/21 04:49:07;;;;;;;12.55;4.35;;;;;;;-3.69;74.04;101738.47;4766299;30;20526;-67
2021/12/21 04:52:11;;;;;;;;;;;;;;;-3.67;73.77;101741.03;4767831;30;20481;-66
2021/12/21 04:55:14;;;;;;;8.10;4.90;;;;;;;-3.63;73.66;101738.63;4768390;30;20676;-67
2021/12/21 04:58:17;;;;;;;10.57;4.32;;;;;;;-3.64;74.06;101744.53;4767998;30;20538;-66
2021/12/21 05:01:21;;;;;;;9.75;3.55;;;;;;;-3.80;74.44;101740.75;4761491;30;20105;-67
2021/12/21 05:04:25;;;;;;;8.90;4.40;;;;;;;-3.83;74.45;101734.66;4763258;30;20092;-67
2021/12/21 05:07:32;;;;;;;13.30;3.92;;;;;;;-3.69;74.22;101742.72;4767800;30;20089;-67
2021/12/21 05:10:46;;;;;;;12.40;5.07;;;;;;;-3.75;73.85;101744.28;4767290;30;20124;-67
2021/12/21 05:13:50;;;;;;;10.15;5.32;;;;;;;-3.68;73.78;101740.19;4767994;30;20054;-67
2021/12/21 05:16:54;;;;;;;;;;;;;;;-3.75;73.50;101738.31;4767167;30;20458;-66
2021/12/21 05:19:57;;;;;;;7.03;3.23;;;;;;;-3.83;73.65;101739.78;4766703;30;19980;-67
2021/12/21 05:23:09;;;;;;;9.30;4.40;;;;;;;-3.88;73.55;101723.50;4767007;30;20128;-67
2021/12/21 05:26:12;;;;;;;10.38;5.70;;;;;;;-3.84;73.95;101722.72;4767018;30;20143;-66
2021/12/21 05:29:15;;;;;;;11.38;4.57;;;;;;;-3.84;74.12;101712.50;4775982;30;20113;-67
2021/12/21 05:32:19;;;;;;;11.80;5.80;;;;;;;-3.84;74.13;101721.03;4766328;30;20051;-66
2021/12/21 05:35:25;;;;;;;8.57;4.25;;;;;;;-3.83;73.81;101719.34;4767324;30;20050;-66
2021/12/21 05:38:32;;;;;;;10.23;4.28;;;;;;;-4.21;74.34;101727.75;4766538;30;20077;-67
2021/12/21 05:41:53;;;;;;;10.93;4.45;;;;;;;-4.24;75.10;101731.91;4766947;30;20094;-66
2021/12/21 05:44:56;;;;;;;8.70;4.43;;;;;;;-4.37;75.02;101734.91;4767474;30;20055;-66
2021/12/21 05:47:59;;;;;;;14.45;4.18;;;;;;;-4.19;74.99;101730.31;4766714;30;20055;-67
2021/12/21 05:51:03;;;;;;;10.13;4.85;;;;;;;-4.06;74.32;101726.41;4766588;30;20185;-67
2021/12/21 05:54:07;;;;;;;10.48;4.13;;;;;;;-4.06;74.04;101740.03;4765849;30;20054;-66
2021/12/21 05:57:10;;;;;;;9.00;4.32;;;;;;;-4.02;74.05;101743.53;4766168;30;20071;-68
2021/12/21 06:00:16;;;;;;;9.95;4.95;;;;;;;-4.03;74.01;101744.38;4774092;30;20051;-67
2021/12/21 06:03:20;;;;;;;13.32;4.50;;;;;;;-3.94;74.60;101738.66;4767053;30;20070;-66
2021/12/21 06:06:23;;;;;;;8.35;4.35;;;;;;;-3.92;74.11;101740.44;4767403;30;20790;-66
2021/12/21 06:09:28;;;;;;;11.75;6.13;;;;;;;-3.95;73.98;101747.16;4766481;30;20131;-67
2021/12/21 06:12:53;;;;;;;13.90;7.15;;;;;;;-3.96;74.18;101743.72;4764958;30;20050;-67
2021/12/21 06:16:21;;;;;;;14.60;4.70;;;;;;;-4.04;74.21;101735.00;4766295;30;20099;-66
2021/12/21 06:26:04;;;;;;;12.70;5.47;;;;;;;-3.97;73.82;101742.84;4766636;30;20253;-66
2021/12/21 06:29:08;;;;;;;17.25;7.13;;;;;;;-3.98;73.73;101746.25;4766181;30;20086;-66
2021/12/21 06:32:12;;;;;;;12.27;6.10;;;;;;;-4.02;73.12;101741.88;4766360;30;20616;-67
2021/12/21 06:35:16;;;;;;;13.73;5.78;;;;;;;-4.01;73.28;101750.41;4775666;30;20247;-67
2021/12/21 06:38:19;;;;;;;;;;;;;;;-4.10;73.39;101765.47;4765938;30;20192;-67
2021/12/21 06:41:22;;;;;;;13.18;5.28;;;;;;;-4.11;73.03;101759.50;4765067;30;19975;-67
2021/12/21 06:44:25;;;;;;;;;;;;;;;-4.02;73.42;101757.22;4766152;30;20059;-67
2021/12/21 06:54:16;;;;;;;14.75;5.32;;;;;;;-4.20;73.49;101754.16;4766026;30;20117;-67
2021/12/21 06:57:19;;;;;;;8.20;4.00;;;;;;;-4.24;73.72;101752.34;4765048;30;20062;-66
2021/12/21 07:00:23;;;;;;;;;;;;;;;-4.16;73.93;101750.84;4765641;30;20072;-67
2021/12/21 07:03:27;;;;;;;12.43;6.07;;;;;;;-4.12;73.99;101751.78;4765276;30;19925;-67
2021/12/21 07:06:31;;;;;;;12.32;5.80;;;;;;;-4.11;73.89;101756.94;4765463;30;20468;-67
2021/12/21 07:09:41;;;;;;;20.90;5.40;;;;;;;-4.19;73.82;101760.97;4765686;30;20185;-66
2021/12/21 07:19:10;;;;;;;10.65;4.28;;;;;;;-4.36;74.07;101757.09;4783022;30;20130;-67
2021/12/21 07:22:13;;;;;;;;;;;;;;;-4.50;74.47;101754.13;4783519;30;20054;-66
2021/12/21 07:25:16;;;;;;;8.65;3.85;;;;;;;-4.47;74.42;101760.22;4781230;29;19939;-66
2021/12/21 07:28:20;;;;;;;10.38;5.10;;;;;;;-4.40;73.84;101760.34;4782918;30;20369;-66
2021/12/21 07:31:24;;;;;;;13.85;5.70;;;;;;;-4.26;74.17;101759.06;4782186;30;20524;-67
2021/12/21 07:34:27;;;;;;;13.68;5.72;;;;;;;-4.17;73.85;101761.03;4782757;30;20062;-67
2021/12/21 07:37:31;;;;;;;;;;;;;;;-4.17;73.20;101767.00;4782982;30;20517;-67
2021/12/21 07:40:35;;;;;;;11.07;5.13;;;;;;;-4.19;72.91;101760.97;4765134;30;19979;-67
2021/12/21 07:43:38;;;;;;;10.13;4.28;;;;;;;-4.24;73.12;101772.75;4764997;30;20094;-66
2021/12/21 07:46:42;;;;;;;10.02;3.83;;;;;;;-4.29;73.10;101764.97;4763561;30;20084;-67
2021/12/21 07:49:45;;;;;;;10.80;4.57;;;;;;;-4.18;73.13;101765.25;4763253;30;20606;-67
2021/12/21 07:52:51;;;;;;;9.52;4.38;;;;;;;-4.14;73.39;101777.31;4763857;30;20420;-66
2021/12/21 07:55:57;;;;;;;12.00;5.55;;;;;;;-4.13;73.30;101784.13;4764757;30;20055;-66
2021/12/21 07:59:00;;;;;;;8.98;4.20;;;;;;;-4.17;73.92;101784.88;4747137;30;20044;-66
2021/12/21 08:02:05;;;;;;;10.90;4.20;;;;;;;-4.29;73.97;101787.09;4747620;30;20447;-66
2021/12/21 08:05:09;;;;;;;10.90;4.38;;;;;;;-4.27;74.69;101788.00;4748324;30;20054;-66
2021/12/21 08:08:19;;;;;;;10.43;4.65;;;;;;;-4.19;74.26;101785.66;4749149;30;20093;-66
2021/12/21 08:12:12;;;;;;;12.13;5.05;;;;;;;-4.24;74.40;101786.41;4751043;30;20130;-66
2021/12/21 08:14:52;;;;;;;14.20;5.95;;;;;;;-4.26;74.29;101785.47;4750573;30;20046;-67
2021/12/21 08:17:55;;;;;;;;;;;;;;;-4.16;74.30;101790.84;4751792;30;20486;-66
2021/12/21 08:20:58;;;;;;;7.32;3.90;;;;;;;-4.13;73.95;101790.94;4751442;30;19979;-66
2021/12/21 08:24:02;;;;;;;10.20;3.95;;;;;;;-4.11;74.27;101787.59;4750994;30;20141;-66
2021/12/21 08:27:05;;;;;;;15.35;4.20;;;;;;;-4.22;74.53;101781.31;4750961;30;20478;-66
2021/12/21 08:30:08;;;;;;;;;;;;;;;-4.29;75.09;101771.75;4751194;30;20313;-66
2021/12/21 08:33:12;;;;;;;13.60;4.90;;;;;;;-4.17;75.13;101779.78;4757899;30;19982;-66
2021/12/21 08:36:15;;;;;;;11.15;4.57;;;;;;;-4.12;74.59;101783.31;4768122;30;20641;-66
2021/12/21 08:39:18;;;;;;;10.45;4.22;;;;;;;-4.07;74.76;101779.19;4764792;30;20055;-66
2021/12/21 08:42:24;;;;;;;9.35;4.40;;;;;;;-4.14;74.87;101777.31;4772809;30;20054;-66
2021/12/21 08:45:27;;;;;;;10.82;4.03;;;;;;;-4.04;74.46;101780.97;4780919;30;20138;-67
2021/12/21 08:48:31;;;;;;;14.20;4.40;;;;;;;-4.16;74.91;101776.38;4784478;29;20050;-67
2021/12/21 08:51:35;;;;;;;7.90;3.92;;;;;;;-4.06;74.51;101770.69;4763175;30;20086;-66
2021/12/21 08:54:38;;;;;;;;;;;;;;;-4.02;74.55;101779.31;4764216;30;20201;-66
2021/12/21 08:57:42;;;;;;;8.95;4.70;;;;;;;-3.95;74.07;101782.94;4763101;30;19929;-67
2021/12/21 09:00:45;;;;;;;;;;;;;;;-4.03;74.86;101781.00;4763959;30;20159;-66
2021/12/21 09:03:49;;;;;;;15.35;4.60;;;;;;;-3.97;74.45;101773.50;4764106;30;19941;-69
2021/12/21 09:06:53;;;;;;;8.02;4.43;;;;;;;-3.88;74.65;101778.00;4764111;30;20058;-66
2021/12/21 09:09:57;;;;;;;9.35;4.35;;;;;;;-3.98;74.61;101786.25;4763028;30;20568;-66
2021/12/21 09:13:01;;;;;;;9.65;4.70;;;;;;;-3.89;74.75;101785.63;4764113;30;20054;-66
2021/12/21 09:16:04;;;;;;;11.00;4.22;;;;;;;-3.86;74.71;101790.81;4763800;30;20105;-67
2021/12/21 09:19:07;;;;;;;10.20;4.60;;;;;;;-3.76;74.32;101780.91;4763087;30;20078;-67
2021/12/21 09:22:11;;;;;;;14.68;5.35;;;;;;;-3.71;74.24;101783.56;4764939;30;20084;-66
2021/12/21 09:25:15;;;;;;;10.45;4.28;;;;;;;-3.97;75.08;101783.72;4763061;30;20145;-66
2021/12/21 09:28:18;;;;;;;11.43;4.60;;;;;;;-3.90;75.62;101794.13;4762317;30;20054;-66
2021/12/21 09:31:22;;;;;;;9.20;4.80;;;;;;;-3.88;75.40;101797.59;4763501;30;20442;-67
2021/12/21 09:34:25;;;;;;;7.05;4.28;;;;;;;-3.78;75.47;101790.19;4763140;30;20094;-66
2021/12/21 09:37:29;;;;;;;28.88;15.43;;;;;;;-3.69;75.31;101794.69;4763931;30;20200;-66
2021/12/21 09:40:38;;;;;;;18.92;10.60;;;;;;;-3.79;75.73;101787.63;4746769;30;20473;-66
2021/12/21 09:43:43;;;;;;;10.73;5.68;;;;;;;-3.66;75.40;101794.78;4746480;30;20063;-66
2021/12/21 09:46:46;;;;;;;12.45;5.47;;;;;;;-3.62;75.72;101796.59;4745300;30;20365;-66
2021/12/21 09:49:50;;;;;;;10.77;4.40;;;;;;;-3.66;75.74;101787.13;4760980;30;20175;-66
2021/12/21 09:52:54;;;;;;;10.80;5.05;;;;;;;-3.65;75.75;101790.53;4763899;30;20607;-66
2021/12/21 09:55:57;;;;;;;12.95;8.52;;;;;;;-3.64;76.10;101793.09;4766117;30;20051;-67
2021/12/21 09:59:02;;;;;;;48.50;28.13;;;;;;;-3.59;76.08;101789.00;4767117;30;20100;-66
2021/12/21 10:02:05;;;;;;;30.70;15.18;;;;;;;-3.51;75.92;101790.06;4767788;30;20147;-66
2021/12/21 10:05:12;;;;;;;17.48;9.13;;;;;;;-3.56;76.44;101776.28;4767058;30;20415;-67
2021/12/21 10:08:19;;;;;;;14.20;7.60;;;;;;;-3.34;75.99;101771.72;4765969;30;20410;-66
2021/12/21 10:11:23;;;;;;;17.05;6.65;;;;;;;-3.33;76.14;101768.31;4775956;30;20188;-67
2021/12/21 10:14:27;;;;;;;8.30;5.05;;;;;;;-3.19;75.75;101771.22;4766112;30;20559;-67
2021/12/21 10:17:32;;;;;;;10.40;5.07;;;;;;;-3.13;76.41;101773.91;4766600;30;20044;-66
2021/12/21 10:20:45;;;;;;;12.35;5.00;;;;;;;-3.18;77.14;101767.84;4766618;30;20066;-66
2021/12/21 10:23:51;;;;;;;11.98;6.35;;;;;;;-3.08;77.19;101764.66;4748677;30;20086;-67
2021/12/21 10:27:08;;;;;;;9.73;5.00;;;;;;;-3.19;77.30;101764.44;4749055;30;20478;-66
2021/12/21 10:30:12;;;;;;;10.63;4.65;;;;;;;-3.11;77.70;101759.47;4749426;30;20143;-67
2021/12/21 10:33:16;;;;;;;11.43;4.82;;;;;;;-2.98;77.48;101750.38;4763680;30;20058;-67
2021/12/21 10:36:19;;;;;;;10.35;5.57;;;;;;;-2.93;77.47;101746.25;4765565;30;20055;-67
2021/12/21 10:39:28;;;;;;;26.48;14.65;;;;;;;-3.00;77.94;101740.09;4766853;30;20460;-66
2021/12/21 10:42:31;;;;;;;37.55;15.13;;;;;;;-3.12;78.42;101742.41;4766747;30;20074;-66
2021/12/21 10:45:38;;;;;;;121.40;47.55;;;;;;;-2.98;78.67;101738.44;4766132;30;20107;-66
2021/12/21 10:48:46;;;;;;;155.40;61.60;;;;;;;-2.79;77.85;101734.59;4765803;30;20050;-66
2021/12/21 10:52:09;;;;;;;109.85;44.70;;;;;;;-2.72;77.96;101727.91;4747819;30;20090;-66
2021/12/21 10:55:12;;;;;;;61.17;25.17;;;;;;;-2.67;78.29;101732.31;4749092;30;20088;-66
2021/12/21 10:58:18;;;;;;;29.73;15.27;;;;;;;-2.62;78.63;101728.16;4748682;30;20497;-67
2021/12/21 11:01:27;;;;;;;27.70;13.38;;;;;;;-2.85;79.81;101727.66;4747375;30;20047;-67
2021/12/21 11:04:36;;;;;;;44.20;20.90;;;;;;;-2.63;79.36;101728.97;4760949;30;20050;-66
2021/12/21 11:07:48;;;;;;;42.83;23.10;;;;;;;-2.60;79.96;101723.94;4783872;30;20070;-66
2021/12/21 11:10:56;;;;;;;51.97;32.15;;;;;;;-2.46;79.50;101731.03;4767465;30;20074;-66
2021/12/21 11:13:59;;;;;;;39.55;22.15;;;;;;;-2.36;79.76;101731.25;4769201;30;20475;-66
2021/12/21 11:17:05;;;;;;;20.98;12.20;;;;;;;-2.43;80.69;101720.84;4769356;30;20097;-66
2021/12/21 11:20:12;;;;;;;23.52;12.05;;;;;;;-2.26;79.85;101721.19;4770065;30;20596;-66
2021/12/21 11:23:17;;;;;;;24.67;11.80;;;;;;;-2.11;80.23;101712.09;4769971;30;20108;-67
2021/12/21 11:26:21;;;;;;;15.60;9.02;;;;;;;-1.99;80.16;101714.00;4770017;30;20061;-66
2021/12/21 11:29:25;;;;;;;17.02;7.85;;;;;;;-1.86;79.86;101715.09;4769872;30;20075;-66
2021/12/21 11:32:31;;;;;;;17.38;8.60;;;;;;;-1.78;79.65;101717.81;4779299;30;20051;-66
2021/12/21 11:38:38;;;;;;;;;;;;;;;-1.65;80.18;101699.22;4770206;30;20093;-66
2021/12/21 11:41:42;;;;;;;15.98;7.32;;;;;;;-1.59;80.51;101693.34;4769494;30;19954;-67
2021/12/21 11:45:09;;;;;;;12.57;7.13;;;;;;;-1.52;80.06;101693.44;4751586;30;20482;-67
2021/12/21 11:48:20;;;;;;;16.48;7.22;;;;;;;-1.54;80.47;101686.56;4751443;30;20083;-67
2021/12/21 11:51:26;;;;;;;15.10;7.45;;;;;;;-1.55;80.45;101684.84;4751836;30;20097;-67
2021/12/21 11:54:30;;;;;;;12.77;7.35;;;;;;;-1.49;80.30;101677.25;4751949;30;20067;-67
2021/12/21 11:57:37;;;;;;;13.77;7.20;;;;;;;-1.42;79.99;101671.38;4751676;30;20558;-67
2021/12/21 12:00:48;;;;;;;13.63;6.90;;;;;;;-1.44;80.74;101668.75;4751484;30;20105;-67
2021/12/21 12:04:06;;;;;;;20.10;7.97;;;;;;;-1.42;80.80;101661.09;4751317;30;20051;-67
2021/12/21 12:07:16;;;;;;;13.23;5.97;;;;;;;-1.41;80.93;101655.97;4751387;30;20517;-67
2021/12/21 12:10:21;;;;;;;18.08;8.63;;;;;;;-1.41;80.92;101662.81;4750847;30;20065;-67
2021/12/21 12:13:43;;;;;;;15.73;7.80;;;;;;;-1.32;80.46;101654.41;4762943;30;20305;-67
2021/12/21 12:16:54;;;;;;;13.95;6.55;;;;;;;-1.30;80.15;101645.03;4769021;30;20063;-67
2021/12/21 12:20:07;;;;;;;10.70;6.47;;;;;;;-1.32;80.47;101651.84;4768883;30;20100;-67
2021/12/21 12:23:12;;;;;;;20.05;9.95;;;;;;;-1.60;82.84;101645.44;4769020;30;20063;-67
2021/12/21 12:26:30;;;;;;;12.82;7.63;;;;;;;-1.45;81.79;101650.78;4768597;30;20064;-67
2021/12/21 12:29:53;;;;;;;13.38;6.88;;;;;;;-1.36;81.92;101647.50;4768710;30;20059;-67
2021/12/21 12:33:00;;;;;;;19.45;8.15;;;;;;;-1.35;81.69;101647.53;4768743;30;20054;-67
2021/12/21 12:36:04;;;;;;;18.65;8.45;;;;;;;-1.33;81.22;101650.97;4769120;30;20116;-67
2021/12/21 12:39:08;;;;;;;21.42;10.77;;;;;;;-1.27;80.93;101651.06;4765090;30;20546;-67
2021/12/21 12:42:17;;;;;;;22.52;11.45;;;;;;;-1.26;81.29;101646.81;4764412;30;20136;-67
2021/12/21 12:45:22;;;;;;;26.83;13.55;;;;;;;-1.16;81.33;101638.38;4786431;29;20213;-67
2021/12/21 12:48:37;;;;;;;25.25;16.58;;;;;;;-1.12;80.99;101629.00;4781762;30;20053;-67
2021/12/21 12:51:44;;;;;;;28.45;16.23;;;;;;;-1.10;80.81;101630.78;4769364;30;20609;-67
2021/12/21 12:54:54;;;;;;;28.00;15.35;;;;;;;-1.09;80.75;101634.19;4764448;30;20401;-67
2021/12/21 12:57:58;;;;;;;22.27;14.18;;;;;;;-1.06;80.89;101629.97;4762738;30;20229;-67
2021/12/21 13:01:06;;;;;;;27.73;14.32;;;;;;;-1.00;80.70;101634.31;4763375;30;20082;-67
2021/12/21 13:04:12;;;;;;;29.95;16.00;;;;;;;-1.02;80.66;101625.72;4763944;30;20100;-68
2021/12/21 13:07:28;;;;;;;22.80;14.30;;;;;;;-0.98;80.66;101625.78;4763080;30;20106;-67
2021/12/21 13:10:31;;;;;;;28.08;14.70;;;;;;;-0.96;80.42;101618.09;4767465;30;20690;-67
2021/12/21 13:13:40;;;;;;;25.25;15.63;;;;;;;-0.96;80.49;101615.53;4781874;30;20081;-67
2021/12/21 13:16:47;;;;;;;27.98;15.55;;;;;;;-0.97;80.38;101606.13;4781366;30;20050;-67
2021/12/21 13:19:49;;;;;;;24.05;14.10;;;;;;;-0.98;80.58;101615.53;4781911;30;20147;-67
2021/12/21 13:22:53;;;;;;;29.63;18.90;;;;;;;-0.92;80.92;101612.19;4748347;30;20082;-67
2021/12/21 13:26:07;;;;;;;42.20;20.73;;;;;;;-0.95;80.87;101609.56;4773686;30;20161;-67
2021/12/21 13:29:18;;;;;;;30.45;16.38;;;;;;;-1.07;82.02;101610.28;4784657;30;20104;-67
2021/12/21 13:32:22;;;;;;;36.00;21.35;;;;;;;-0.92;81.24;101612.19;4784834;30;20054;-67
2021/12/21 13:35:28;;;;;;;42.25;22.80;;;;;;;-0.91;81.25;101610.47;4793336;29;20104;-67
2021/12/21 13:38:31;;;;;;;32.25;18.10;;;;;;;-0.91;81.48;101608.75;4786034;30;20406;-67
2021/12/21 13:41:44;;;;;;;29.02;16.95;;;;;;;-0.94;81.34;101611.28;4785537;30;20606;-67
2021/12/21 13:44:52;;;;;;;21.02;11.30;;;;;;;-0.95;81.91;101609.56;4763802;30;20081;-67
2021/12/21 13:47:55;;;;;;;30.23;16.23;;;;;;;-0.98;81.90;101612.09;4766019;30;20054;-68
2021/12/21 13:51:11;;;;;;;32.08;18.80;;;;;;;-0.89;81.33;101601.06;4776304;30;20197;-67
2021/12/21 13:54:17;;;;;;;35.13;19.30;;;;;;;-0.87;81.15;101605.38;4767150;30;20446;-67
2021/12/21 13:57:21;;;;;;;34.42;17.85;;;;;;;-0.91;81.22;101608.75;4766547;30;20266;-68
2021/12/21 14:00:26;;;;;;;25.33;15.43;;;;;;;-0.96;81.99;101610.41;4766244;30;20046;-67
2021/12/21 14:03:37;;;;;;;26.38;13.38;;;;;;;-0.99;82.20;101618.06;4766021;30;20058;-67
2021/12/21 14:06:41;;;;;;;24.20;14.50;;;;;;;-0.99;82.45;101612.94;4768251;30;20120;-67
2021/12/21 14:09:45;;;;;;;25.17;12.70;;;;;;;-1.07;82.40;101607.72;4766350;30;20059;-67
2021/12/21 14:13:00;;;;;;;23.70;16.98;;;;;;;-1.04;82.45;101612.03;4770241;30;20489;-67
2021/12/21 14:16:07;;;;;;;30.48;17.02;;;;;;;-0.99;81.63;101618.94;4771201;30;20059;-67
2021/12/21 14:19:23;;;;;;;22.30;15.18;;;;;;;-1.04;81.83;101618.00;4770976;30;20077;-67
2021/12/21 14:22:26;;;;;;;27.05;15.30;;;;;;;-0.98;81.35;101617.25;4753101;30;20055;-67
2021/12/21 14:25:29;;;;;;;20.38;13.38;;;;;;;-1.00;81.76;101604.38;4753129;30;20082;-67
2021/12/21 14:28:51;;;;;;;23.85;13.63;;;;;;;-0.98;81.50;101605.25;4752986;30;20055;-67
2021/12/21 14:32:13;;;;;;;22.42;11.85;;;;;;;-0.98;82.00;101612.09;4752873;30;20258;-67
2021/12/21 14:35:16;;;;;;;24.45;14.32;;;;;;;-1.04;81.80;101606.88;4752485;30;20137;-67
2021/12/21 14:38:20;;;;;;;29.45;18.88;;;;;;;-1.18;82.14;101606.72;4753047;30;20125;-67
2021/12/21 14:41:30;;;;;;;;;;;;;;;-1.10;81.71;101606.81;4753170;30;20059;-67
2021/12/21 14:44:50;;;;;;;27.85;13.60;;;;;;;-1.00;81.71;101603.50;4752927;30;19925;-67
2021/12/21 14:47:53;;;;;;;30.90;15.70;;;;;;;-1.00;81.83;101600.94;4752824;30;20420;-67
2021/12/21 14:51:10;;;;;;;27.15;14.18;;;;;;;-1.02;81.26;101610.31;4764781;30;20525;-67
2021/12/21 14:54:22;;;;;;;22.13;12.13;;;;;;;-1.05;81.20;101603.47;4770464;30;20078;-67
2021/12/21 14:58:00;;;;;;;20.90;11.93;;;;;;;-1.13;81.19;101609.34;4770385;30;20113;-67
2021/12/21 15:01:05;;;;;;;20.70;10.32;;;;;;;-1.17;80.98;101611.00;4759923;30;20105;-67
2021/12/21 15:04:16;;;;;;;17.50;10.07;;;;;;;-1.20;81.21;101608.41;4770248;30;20047;-67
2021/12/21 15:07:20;;;;;;;17.95;10.38;;;;;;;-1.20;80.77;101606.69;4769137;30;20109;-67
2021/12/21 15:10:27;;;;;;;15.98;8.38;;;;;;;-1.24;80.92;101604.06;4770103;30;20055;-67